createdAt,value
2023-04-25T00:03:06.483Z,5.30
2023-04-25T00:07:30.775Z,6.30
2023-04-25T00:11:55.919Z,6.60
2023-04-25T00:16:06.214Z,5.80
2023-04-25T00:20:12.083Z,6.00
2023-04-25T00:24:21.893Z,6.40
2023-04-25T00:28:19.365Z,5.40
2023-04-25T00:32:17.539Z,6.60
2023-04-25T00:36:24.094Z,6.70
2023-04-25T00:40:48.648Z,8.50
2023-04-25T00:45:20.897Z,7.60
2023-04-25T00:49:44.540Z,7.70
2023-04-25T00:53:58.149Z,6.30
2023-04-25T00:58:42.133Z,7.50
2023-04-25T01:03:21.537Z,7.50
2023-04-25T01:07:46.934Z,6.90
2023-04-25T01:11:51.236Z,5.90
2023-04-25T01:16:11.689Z,5.50
2023-04-25T01:20:15.846Z,4.00
2023-04-25T01:24:41.025Z,7.00
2023-04-25T01:29:05.339Z,5.90
2023-04-25T01:33:10.750Z,5.40
2023-04-25T01:37:15.562Z,3.60
2023-04-25T01:41:39.115Z,5.50
2023-04-25T01:46:11.302Z,4.70
2023-04-25T01:55:59.987Z,6.60
2023-04-25T02:00:19.725Z,6.80
2023-04-25T02:04:24.348Z,5.70
2023-04-25T02:08:40.275Z,4.80
2023-04-25T02:13:04.934Z,4.50
2023-04-25T02:17:49.106Z,5.30
2023-04-25T02:22:28.265Z,3.90
2023-04-25T02:27:13.838Z,4.80
2023-04-25T02:31:21.312Z,5.70
2023-04-25T02:35:29.362Z,5.50
2023-04-25T02:40:01.482Z,3.00
2023-04-25T02:44:41.657Z,3.70
2023-04-25T02:49:07.791Z,3.70
2023-04-25T02:53:32.666Z,3.50
2023-04-25T02:58:19.936Z,5.10
2023-04-25T03:02:10.848Z,4.70
2023-04-25T03:06:41.972Z,4.80
2023-04-25T03:10:50.947Z,3.60
2023-04-25T03:15:11.469Z,4.60
2023-04-25T03:19:51.922Z,3.30
2023-04-25T03:24:04.143Z,4.20
2023-04-25T03:28:30.764Z,4.00
2023-04-25T03:33:05.991Z,3.90
2023-04-25T03:37:14.066Z,4.00
2023-04-25T03:41:38.767Z,4.00
2023-04-25T03:45:44.098Z,4.10
2023-04-25T03:50:11.568Z,3.10
2023-04-25T03:54:45.672Z,3.70
2023-04-25T03:59:12.835Z,6.60
2023-04-25T04:03:26.283Z,5.10
2023-04-25T04:07:35.211Z,3.80
2023-04-25T04:11:47.515Z,3.00
2023-04-25T04:15:55.347Z,3.60
2023-04-25T04:24:47.154Z,4.00
2023-04-25T04:29:13.572Z,5.60
2023-04-25T04:33:28.074Z,7.40
2023-04-25T04:37:59.449Z,8.90
2023-04-25T04:42:09.214Z,5.50
2023-04-25T04:46:36.608Z,4.10
2023-04-25T04:51:04.688Z,11.00
2023-04-25T04:55:29.945Z,12.10
2023-04-25T05:00:05.607Z,7.10
2023-04-25T05:04:13.850Z,6.90
2023-04-25T05:08:57.901Z,4.00
2023-04-25T05:13:20.834Z,5.60
2023-04-25T05:17:41.127Z,6.00
2023-04-25T05:22:16.754Z,6.40
2023-04-25T05:26:35.030Z,6.10
2023-04-25T05:30:39.737Z,5.30
2023-04-25T05:34:45.200Z,4.90
2023-04-25T05:38:49.906Z,6.10
2023-04-25T05:43:05.830Z,5.50
2023-04-25T05:47:15.126Z,6.30
2023-04-25T05:51:23.449Z,5.50
2023-04-25T05:55:31.876Z,7.40
2023-04-25T05:59:45.491Z,8.70
2023-04-25T06:03:51.386Z,10.10
2023-04-25T06:08:00.732Z,10.50
2023-04-25T06:12:06.446Z,17.00
2023-04-25T06:16:21.167Z,5.70
2023-04-25T06:20:53.371Z,6.30
2023-04-25T06:25:08.489Z,5.80
2023-04-25T06:29:20.380Z,7.10
2023-04-25T06:33:23.995Z,5.60
2023-04-25T06:36:58.502Z,5.40
2023-04-25T06:41:07.213Z,6.80
2023-04-25T06:45:16.994Z,6.20
2023-04-25T06:49:10.021Z,5.10
2023-04-25T06:53:23.822Z,4.90
2023-04-25T06:57:28.948Z,5.50
2023-04-25T07:01:30.312Z,5.30
2023-04-25T07:05:19.598Z,5.40
2023-04-25T07:09:00.708Z,7.00
2023-04-25T07:12:52.628Z,7.30
2023-04-25T07:16:28.660Z,5.40
2023-04-25T07:20:11.450Z,5.00
2023-04-25T07:23:45.719Z,5.20
2023-04-25T07:27:09.894Z,7.00
2023-04-25T07:30:36.135Z,4.50
2023-04-25T07:34:18.746Z,6.10
2023-04-25T07:37:48.771Z,4.90
2023-04-25T07:41:14.097Z,3.70
2023-04-25T07:44:44.521Z,5.20
2023-04-25T07:48:17.876Z,6.20
2023-04-25T07:51:46.276Z,5.20
2023-04-25T07:55:09.646Z,4.40
2023-04-25T07:58:31.434Z,6.50
2023-04-25T08:01:54.549Z,4.80
2023-04-25T08:05:23.055Z,5.60
2023-04-25T08:08:40.906Z,4.40
2023-04-25T08:12:46.317Z,4.10
2023-04-25T08:16:11.289Z,3.70
2023-04-25T08:19:41.339Z,3.50
2023-04-25T08:23:08.557Z,4.30
2023-04-25T08:26:45.149Z,4.20
2023-04-25T08:30:14.322Z,4.40
2023-04-25T08:33:40.053Z,4.60
2023-04-25T08:37:08.475Z,4.40
2023-04-25T08:40:37.337Z,5.30
2023-04-25T08:44:12.473Z,5.30
2023-04-25T08:47:37.640Z,5.20
2023-04-25T08:51:18.599Z,5.50
2023-04-25T08:54:37.230Z,5.70
2023-04-25T08:58:12.014Z,5.40
2023-04-25T09:01:48.689Z,4.10
2023-04-25T09:05:16.676Z,4.80
2023-04-25T09:08:51.314Z,5.70
2023-04-25T09:12:23.013Z,4.80
2023-04-25T09:15:54.324Z,3.90
2023-04-25T09:19:40.367Z,4.50
2023-04-25T09:23:10.466Z,3.90
2023-04-25T09:26:34.691Z,4.30
2023-04-25T09:30:03.781Z,4.20
2023-04-25T09:33:36.922Z,5.10
2023-04-25T09:37:03.485Z,3.40
2023-04-25T09:40:29.368Z,4.30
2023-04-25T09:44:01.753Z,4.00
2023-04-25T09:48:02.259Z,3.20
2023-04-25T09:51:43.312Z,4.70
2023-04-25T09:55:11.510Z,4.60
2023-04-25T10:02:53.254Z,4.20
2023-04-25T10:06:46.361Z,4.80
2023-04-25T10:10:37.764Z,3.60
2023-04-25T10:17:37.347Z,3.60
2023-04-25T10:21:09.583Z,4.20
2023-04-25T10:24:38.289Z,6.00
2023-04-25T10:28:18.995Z,3.10
2023-04-25T10:32:00.134Z,3.10
2023-04-25T10:35:32.757Z,3.70
2023-04-25T10:39:22.403Z,4.30
2023-04-25T10:43:03.582Z,4.90
2023-04-25T10:46:40.000Z,4.20
2023-04-25T10:50:23.726Z,5.30
2023-04-25T10:54:00.236Z,3.90
2023-04-25T10:57:32.420Z,3.90
2023-04-25T11:00:57.895Z,4.30
2023-04-25T11:04:42.655Z,3.80
2023-04-25T11:08:19.837Z,4.80
2023-04-25T11:11:55.298Z,3.40
2023-04-25T11:15:24.396Z,3.70
2023-04-25T11:18:59.233Z,3.80
2023-04-25T11:22:36.213Z,5.20
2023-04-25T11:26:06.381Z,4.30
2023-04-25T11:29:50.964Z,4.20
2023-04-25T11:33:18.024Z,5.30
2023-04-25T11:36:58.543Z,4.50
2023-04-25T11:40:28.186Z,5.10
2023-04-25T11:43:55.983Z,4.80
2023-04-25T11:47:29.363Z,6.00
2023-04-25T11:51:14.970Z,5.00
2023-04-25T11:54:59.035Z,4.40
2023-04-25T11:58:27.565Z,6.00
2023-04-25T12:02:15.908Z,4.50
2023-04-25T12:05:42.755Z,3.20
2023-04-25T12:09:29.775Z,3.70
2023-04-25T12:17:16.295Z,4.60
2023-04-25T12:20:40.142Z,4.50
2023-04-25T12:24:43.931Z,3.90
2023-04-25T12:28:55.836Z,5.00
2023-04-25T12:32:35.731Z,4.50
2023-04-25T12:36:12.101Z,4.60
2023-04-25T12:39:44.294Z,5.30
2023-04-25T12:43:10.037Z,4.80
2023-04-25T12:53:02.332Z,5.20
2023-04-25T12:56:31.736Z,6.20
2023-04-25T12:59:55.751Z,5.80
2023-04-25T13:03:25.337Z,5.20
2023-04-25T13:06:53.216Z,4.50
2023-04-25T13:10:22.905Z,5.70
2023-04-25T13:13:47.675Z,4.20
2023-04-25T13:17:15.206Z,3.90
2023-04-25T13:20:56.553Z,4.50
2023-04-25T13:24:22.902Z,6.50
2023-04-25T13:27:58.273Z,5.60
2023-04-25T13:31:22.299Z,4.90
2023-04-25T13:34:46.939Z,4.60
2023-04-25T13:38:24.933Z,5.40
2023-04-25T13:41:54.099Z,5.70
2023-04-25T13:45:37.158Z,4.90
2023-04-25T13:49:11.584Z,5.60
2023-04-25T13:52:38.693Z,5.90
2023-04-25T13:56:10.274Z,4.80
2023-04-25T13:59:44.393Z,5.50
2023-04-25T14:03:23.668Z,4.50
2023-04-25T14:06:50.585Z,5.30
2023-04-25T14:10:17.427Z,7.40
2023-04-25T14:13:43.099Z,4.80
2023-04-25T14:17:14.199Z,5.40
2023-04-25T14:20:42.302Z,6.20
2023-04-25T14:24:27.946Z,6.30
2023-04-25T14:27:57.569Z,7.70
2023-04-25T14:31:30.916Z,6.10
2023-04-25T14:35:17.869Z,6.10
2023-04-25T14:38:43.046Z,4.20
2023-04-25T14:42:08.318Z,7.40
2023-04-25T14:45:32.954Z,6.00
2023-04-25T14:49:04.042Z,3.90
2023-04-25T14:52:47.344Z,4.90
2023-04-25T14:56:17.918Z,6.80
2023-04-25T14:59:42.792Z,5.70
2023-04-25T15:03:12.574Z,5.80
2023-04-25T15:06:48.852Z,5.20
2023-04-25T15:10:17.499Z,6.60
2023-04-25T15:13:46.228Z,5.90
2023-04-25T15:23:29.815Z,6.30
2023-04-25T15:26:56.375Z,6.10
2023-04-25T15:30:44.800Z,5.80
2023-04-25T15:34:42.467Z,7.10
2023-04-25T15:38:09.324Z,7.80
2023-04-25T15:41:42.659Z,9.50
2023-04-25T15:45:08.983Z,6.40
2023-04-25T15:48:45.628Z,6.20
2023-04-25T15:52:59.034Z,5.40
2023-04-25T15:57:16.210Z,8.10
2023-04-25T16:01:40.645Z,7.00
2023-04-25T16:06:00.431Z,19.10
2023-04-25T16:09:50.870Z,6.50
2023-04-25T16:17:44.160Z,9.40
2023-04-25T16:21:49.903Z,7.90
2023-04-25T16:26:34.507Z,5.80
2023-04-25T16:30:54.350Z,10.30
2023-04-25T16:35:11.170Z,10.50
2023-04-25T16:39:32.088Z,11.30
2023-04-25T16:43:48.421Z,19.70
2023-04-25T16:48:32.803Z,7.40
2023-04-25T16:52:36.813Z,9.30
2023-04-25T16:56:36.704Z,8.00
2023-04-25T17:01:16.984Z,6.70
2023-04-25T17:06:01.865Z,5.30
2023-04-25T17:10:09.641Z,8.30
2023-04-25T17:14:55.137Z,10.50
2023-04-25T17:19:08.608Z,12.10
2023-04-25T17:23:53.129Z,9.90
2023-04-25T17:27:57.291Z,10.00
2023-04-25T17:32:05.734Z,12.10
2023-04-25T17:36:45.176Z,12.30
2023-04-25T17:40:53.894Z,14.10
2023-04-25T17:44:49.081Z,11.10
2023-04-25T17:49:12.752Z,14.30
2023-04-25T17:53:17.598Z,13.40
2023-04-25T17:58:01.956Z,12.40
2023-04-25T18:02:28.449Z,11.60
2023-04-25T18:07:03.759Z,9.70
2023-04-25T18:15:53.118Z,11.70
2023-04-25T18:20:29.853Z,11.90
2023-04-25T18:24:41.022Z,14.60
2023-04-25T18:29:16.306Z,14.60
2023-04-25T18:33:33.177Z,18.40
2023-04-25T18:38:02.535Z,15.00
2023-04-25T18:46:18.719Z,19.80
2023-04-25T18:50:48.050Z,27.40
2023-04-25T18:54:52.869Z,27.70
2023-04-25T18:59:35.555Z,20.10
2023-04-25T19:04:05.830Z,19.90
2023-04-25T19:08:19.385Z,16.60
2023-04-25T19:12:44.670Z,25.30
2023-04-25T19:17:22.525Z,42.40
2023-04-25T19:21:34.379Z,20.80
2023-04-25T19:25:58.376Z,23.70
2023-04-25T19:30:29.479Z,21.70
2023-04-25T19:34:42.354Z,21.00
2023-04-25T19:39:07.417Z,14.70
2023-04-25T19:43:13.460Z,16.80
2023-04-25T19:47:45.105Z,15.10
2023-04-25T19:52:17.569Z,19.70
2023-04-25T19:56:17.243Z,19.40
2023-04-25T20:00:30.417Z,18.20
2023-04-25T20:04:58.440Z,15.20
2023-04-25T20:09:22.956Z,18.00
2023-04-25T20:13:50.585Z,7.80
2023-04-25T20:18:03.053Z,6.70
2023-04-25T20:22:07.551Z,6.20
2023-04-25T20:26:35.225Z,7.30
2023-04-25T20:30:41.091Z,7.90
2023-04-25T20:35:23.398Z,10.10
2023-04-25T20:39:30.557Z,7.10
2023-04-25T20:43:54.449Z,5.70
2023-04-25T20:47:59.730Z,4.30
2023-04-25T20:52:43.381Z,6.10
2023-04-25T20:57:16.158Z,7.90
2023-04-25T21:01:22.609Z,6.60
2023-04-25T21:05:48.465Z,6.10
2023-04-25T21:10:33.046Z,8.70
2023-04-25T21:14:42.721Z,6.90
2023-04-25T21:19:28.619Z,6.60
2023-04-25T21:23:54.808Z,9.10
2023-04-25T21:28:27.214Z,10.00
2023-04-25T21:36:59.869Z,6.00
2023-04-25T21:41:47.988Z,5.00
2023-04-25T21:50:58.011Z,9.20
2023-04-25T21:55:27.813Z,4.30
2023-04-25T21:59:52.843Z,4.30
2023-04-25T22:04:38.098Z,4.40
2023-04-25T22:09:22.260Z,7.00
2023-04-25T22:13:42.311Z,5.20
2023-04-25T22:18:27.039Z,7.30
2023-04-25T22:23:06.446Z,7.90
2023-04-25T22:27:50.708Z,7.60
2023-04-25T22:31:57.145Z,4.20
2023-04-25T22:36:21.696Z,10.50
2023-04-25T22:40:32.468Z,8.40
2023-04-25T22:44:54.636Z,4.60
2023-04-25T22:49:14.669Z,10.00
2023-04-25T22:53:55.188Z,3.70
2023-04-25T22:58:01.083Z,5.60
2023-04-25T23:02:09.599Z,6.90
2023-04-25T23:06:49.972Z,5.70
2023-04-25T23:11:29.626Z,6.40
2023-04-25T23:16:01.442Z,7.20
2023-04-25T23:20:06.279Z,10.10
2023-04-25T23:24:11.538Z,4.80
2023-04-25T23:28:35.576Z,6.70
2023-04-25T23:33:19.970Z,8.60
2023-04-25T23:46:31.611Z,7.10
2023-04-25T23:51:15.920Z,6.40
2023-04-25T23:56:00.212Z,5.20
